Huvudsida
METAR-TAF:

METAR-TAF

Flygplatser :

Riyadh, Saudiarabien

latitud: 24-43N, longitud: 046-44E, höjd: 635 m

METAR: saknas

Tid: 22:40 (19:40 UTC)

Väderprognos

Denna rapport gjordes för 8 timmar och 40 minuter sedan, klockan 11:00 UTC
Prognos gäller från 28 kl. 12 UTC till 29 kl. 18 UTC
Vind 10 kt från nord/nordväst
Sikt: 7000 m
Temporärt
från 28 kl. 12 UTC till 28 kl. 16 UTC
Sikt: 4000 m
utbrett stoft
Blir
från 28 kl. 18 UTC till 28 kl. 20 UTC
Vind 6 kt från syd/sydost

TAF: OERY 281100Z 2812/2918 33010KT 7000 NSC TEMPO 2812/2816 4000 DU BECMG 2818/2820 15006KT

Aktuella väderrapporter och prognoser från 4000 flygplatser (METAR- och TAF-rapporter).

De tillgängliga stationerna syns som gula och röda prickar på kartan.

För musen över prickarna för att se namnen på stationerna.

Klicka sedan för att få väderrapporter och prognoser.

För att ändra kartan: Klicka på de gröna knapparna med ett svart kors på för att zooma in; den gröna knappen med ett streck på för att zooma ut; eller på de gröna pilarna för angränsande kartor.


METAR-TAF: